Terminal Aerodrome Forecast
Issued by NWS

Home | Current Version | Previous Version | Graphics & Text | Print | Product List | Glossary On
Versions: 1 2 3 4 5 6 7 8 9 10 11 12 13 14 15 16 17 18 19 20 21 22 23 24 25 26 27 28 29 30 31 32 33 34
000
FTUS43 KLOT 210520
TAFMDW
TAF
KMDW 210520Z 2106/2212 03008KT P6SM SCT013 OVC020
     FM210700 04007KT 3SM -DZ BR SCT005 OVC008
     FM211100 08008KT 5SM -SHRA BR FEW005 OVC008
     FM211600 11013KT 6SM -SHRA BR BKN008 OVC015
     FM212100 08012KT 6SM BR VCSH SCT010 OVC015
     FM220200 03010KT P6SM BKN008=

USA.gov is the U.S. government's official web portal to all federal, state and local government web resources and services.